createdAt,value
2022-11-05T00:03:20.170Z,13.311036789297658
2022-11-05T00:11:00.440Z,12.133779264214047
2022-11-05T00:18:23.100Z,10.478260869565217
2022-11-05T00:26:23.898Z,9.882943143812708
2022-11-05T00:34:02.149Z,10.59866220735786
2022-11-05T00:41:34.491Z,9.464882943143813
2022-11-05T00:55:41.759Z,8.117056856187292
2022-11-05T01:07:38.155Z,8.59866220735786
2022-11-05T01:15:13.086Z,8.675585284280936
2022-11-05T01:25:41.213Z,8.478260869565217
2022-11-05T01:33:33.034Z,7.839464882943144
2022-11-05T01:43:17.676Z,7.909698996655519
2022-11-05T01:51:33.970Z,9.384615384615385
2022-11-05T02:03:41.752Z,7.62876254180602
2022-11-05T02:11:29.026Z,8.34448160535117
2022-11-05T02:19:35.679Z,7.996655518394649
2022-11-05T02:27:47.568Z,7.705685618729097
2022-11-05T02:43:58.918Z,8.020066889632107
2022-11-05T02:52:34.180Z,7.903010033444816
2022-11-05T03:02:19.857Z,7.7725752508361206
2022-11-05T03:16:58.549Z,7.862876254180602
2022-11-05T03:24:56.406Z,7.424749163879599
2022-11-05T03:33:25.186Z,6.775919732441472
2022-11-05T03:41:18.937Z,6.956521739130435
2022-11-05T03:49:06.741Z,6.926421404682274
2022-11-05T03:56:54.067Z,6.053511705685619
2022-11-05T04:04:42.879Z,6.153846153846154
2022-11-05T04:12:36.557Z,5.37123745819398
2022-11-05T04:20:24.061Z,5.926421404682274
2022-11-05T04:30:36.146Z,6.374581939799331
2022-11-05T04:52:59.130Z,6.996655518394649
2022-11-05T05:01:02.786Z,6.173913043478261
2022-11-05T05:08:58.501Z,7.070234113712375
2022-11-05T05:17:08.633Z,6.638795986622074
2022-11-05T05:30:56.141Z,7.558528428093646
2022-11-05T05:55:23.505Z,7.608695652173913
2022-11-05T06:08:27.396Z,8.214046822742475
2022-11-05T06:16:08.198Z,8.404682274247492
2022-11-05T06:28:17.133Z,9.45819397993311
2022-11-05T06:36:17.222Z,10.785953177257525
2022-11-05T06:43:50.913Z,10.695652173913043
2022-11-05T06:53:08.351Z,11.548494983277592
2022-11-05T07:09:33.644Z,11.377926421404682
2022-11-05T07:17:56.214Z,16.48829431438127
2022-11-05T07:26:21.345Z,15.160535117056856
2022-11-05T07:34:28.992Z,19.321070234113712
2022-11-05T07:48:06.672Z,12.558528428093645
2022-11-05T07:57:15.202Z,13.066889632107024
2022-11-05T08:05:41.077Z,13.946488294314381
2022-11-05T08:13:42.971Z,12.538461538461538
2022-11-05T08:23:16.377Z,10.424749163879598
2022-11-05T08:36:23.476Z,10.521739130434783
2022-11-05T08:44:52.593Z,11.02675585284281
2022-11-05T08:52:54.431Z,9.939799331103679
2022-11-05T09:01:01.797Z,9.441471571906355
2022-11-05T09:08:34.961Z,9.040133779264215
2022-11-05T09:15:53.662Z,8.698996655518394
2022-11-05T09:23:24.829Z,9.100334448160535
2022-11-05T09:30:46.082Z,8.839464882943144
2022-11-05T09:38:40.496Z,7.866220735785953
2022-11-05T09:46:22.853Z,8.311036789297658
2022-11-05T09:53:45.794Z,7.551839464882943
2022-11-05T10:01:14.173Z,8.280936454849499
2022-11-05T10:08:50.536Z,8.411371237458194
2022-11-05T10:16:23.849Z,8.464882943143813
2022-11-05T10:36:39.776Z,13.006688963210703
2022-11-05T10:49:25.417Z,8.294314381270903
2022-11-05T10:56:58.467Z,8.822742474916389
2022-11-05T11:04:06.067Z,8.73913043478261
2022-11-05T11:12:08.808Z,9.775919732441471
2022-11-05T11:23:21.716Z,8.37458193979933
2022-11-05T11:34:53.439Z,8.434782608695652
2022-11-05T11:51:26.868Z,8.852842809364548
2022-11-05T12:09:38.392Z,7.705685618729097
2022-11-05T12:26:48.984Z,6.210702341137123
2022-11-05T12:38:58.463Z,5.68561872909699
2022-11-05T12:55:59.581Z,6.688963210702341
2022-11-05T13:31:47.678Z,6.237458193979933
2022-11-05T13:47:52.909Z,7.816053511705686
2022-11-05T13:57:18.853Z,5.6521739130434785
2022-11-05T14:08:03.146Z,9.51505016722408
2022-11-05T14:17:53.363Z,9.040133779264215
2022-11-05T14:28:16.651Z,8.612040133779264
2022-11-05T14:37:44.065Z,9.799331103678929
2022-11-05T14:49:15.564Z,11.939799331103679
2022-11-05T14:57:53.318Z,11.779264214046822
2022-11-05T15:05:54.688Z,11.448160535117056
2022-11-05T15:14:01.625Z,13.799331103678929
2022-11-05T15:22:34.526Z,11.983277591973245
2022-11-05T15:37:57.294Z,12.806020066889632
2022-11-05T15:45:38.164Z,12.0
2022-11-05T15:54:28.566Z,11.535117056856187
2022-11-05T16:02:36.152Z,11.602006688963211
2022-11-05T16:14:13.248Z,12.123745819397993
2022-11-05T16:32:07.165Z,11.013377926421406
2022-11-05T16:40:27.103Z,10.478260869565217
2022-11-05T17:10:19.941Z,9.284280936454849
2022-11-05T17:28:43.045Z,12.879598662207357
2022-11-05T17:43:41.047Z,19.11705685618729
2022-11-05T17:53:30.940Z,20.127090301003346
2022-11-05T18:19:16.058Z,31.367892976588628
2022-11-05T18:28:00.226Z,16.789297658862875
2022-11-05T18:40:03.143Z,18.25083612040134
2022-11-05T18:48:55.790Z,16.929765886287626
2022-11-05T18:56:52.986Z,11.879598662207357
2022-11-05T19:05:30.535Z,17.264214046822744
2022-11-05T19:15:05.105Z,35.297658862876254
2022-11-05T19:32:56.981Z,46.86622073578595
2022-11-05T19:44:46.190Z,54.936454849498325
2022-11-05T19:55:41.307Z,51.180602006688964
2022-11-05T20:23:00.036Z,22.953177257525084
2022-11-05T20:33:26.712Z,20.849498327759196
2022-11-05T20:42:47.486Z,19.77257525083612
2022-11-05T21:00:11.572Z,20.73913043478261
2022-11-05T21:12:41.122Z,28.80267558528428
2022-11-05T21:21:41.573Z,23.421404682274247
2022-11-05T21:33:30.959Z,21.438127090301002
2022-11-05T21:42:07.820Z,19.608695652173914
2022-11-05T21:51:12.463Z,18.70903010033445
2022-11-05T21:59:21.433Z,17.62541806020067
2022-11-05T22:09:36.186Z,17.08695652173913
2022-11-05T22:18:43.383Z,17.494983277591974
2022-11-05T22:27:47.811Z,15.013377926421406
2022-11-05T22:38:21.887Z,15.224080267558529
2022-11-05T22:47:09.260Z,14.357859531772576
2022-11-05T22:55:24.072Z,14.060200668896321
2022-11-05T23:11:11.527Z,13.127090301003344
2022-11-05T23:24:35.610Z,12.535117056856187
2022-11-05T23:32:47.903Z,12.107023411371237
2022-11-05T23:44:30.874Z,11.725752508361204
2022-11-05T23:56:13.071Z,10.615384615384615
